Station Historical Data
Daily Summary for April 30, 2012 Units:  Both    English   Metric
« Previous Day
Next Day »
Daily Weekly Monthly Yearly Custom
  High: Low: Average:
Temperature: 84.0 °F /  28.9 °C 58.3 °F /  14.6 °C 72.6 °F /  22.6 °C
Dew Point: 69.2 °F /  20.7 °C 56.6 °F /  13.7 °C 63.3 °F /  17.4 °C
Humidity: 94% 53% 74%
Wind Speed: 15.0mph /  24.1km/h - 3.4mph /  5.5km/h
Wind Gust: 16.0mph /  25.7km/h - -
Wind- - South
Pressure: 30.09 in /  1018.8 hPa 29.97 in /  1014.8 hPa -
Precipitation: 0.00 in /  0 mm    
Historical Graphs
 
 
Tabular Data for April 30, 2012
Time Temperature Dew Point Pressure Wind Wind Speed Wind Gust Humidity Rainfall Rate (Hourly) Conditions
00:00 64.5 °F /  18.1 °C 58.5 °F /  14.7 °C 30.04in /  1017.2hPa Calm     81% 0.00in /  0mm
00:01 64.5 °F /  18.1 °C 58.5 °F /  14.7 °C 30.04in /  1017.2hPa Calm     81% 0.00in /  0mm
00:06 63.9 °F /  17.7 °C 58.0 °F /  14.4 °C 30.03in /  1016.8hPa Calm     81% 0.00in /  0mm
00:11 64.0 °F /  17.8 °C 58.7 °F /  14.8 °C 30.03in /  1016.8hPa ESE 1.0mph /  1.6km/h 1.0mph /  1.6km/h 83% 0.00in /  0mm
00:16 64.4 °F /  18 °C 58.8 °F /  14.9 °C 30.03in /  1016.8hPa ESE 1.0mph /  1.6km/h 1.0mph /  1.6km/h 82% 0.00in /  0mm
00:21 64.6 °F /  18.1 °C 58.7 °F /  14.8 °C 30.03in /  1016.8hPa Calm     81% 0.00in /  0mm
00:27 64.9 °F /  18.3 °C 58.9 °F /  14.9 °C 30.03in /  1016.8hPa Calm   1.0mph /  1.6km/h 81% 0.00in /  0mm
00:32 64.8 °F /  18.2 °C 58.5 °F /  14.7 °C 30.03in /  1016.8hPa Calm     80% 0.00in /  0mm
00:37 64.3 °F /  17.9 °C 58.3 °F /  14.6 °C 30.03in /  1016.8hPa Calm     81% 0.00in /  0mm
00:42 64.3 °F /  17.9 °C 58.7 °F /  14.8 °C 30.03in /  1016.8hPa Calm   1.0mph /  1.6km/h 82% 0.00in /  0mm
00:47 64.4 °F /  18 °C 58.8 °F /  14.9 °C 30.03in /  1016.8hPa Calm     82% 0.00in /  0mm
00:52 64.5 °F /  18.1 °C 58.9 °F /  14.9 °C 30.03in /  1016.8hPa Calm   1.0mph /  1.6km/h 82% 0.00in /  0mm
00:57 64.7 °F /  18.2 °C 58.7 °F /  14.8 °C 30.03in /  1016.8hPa Calm     81% 0.00in /  0mm
01:02 64.8 °F /  18.2 °C 58.8 °F /  14.9 °C 30.03in /  1016.8hPa Calm     81% 0.00in /  0mm
01:07 64.6 °F /  18.1 °C 58.7 °F /  14.8 °C 30.03in /  1016.8hPa Calm     81% 0.00in /  0mm
01:12 64.4 °F /  18 °C 58.8 °F /  14.9 °C 30.03in /  1016.8hPa Calm     82% 0.00in /  0mm
01:17 64.4 °F /  18 °C 58.8 °F /  14.9 °C 30.02in /  1016.5hPa Calm     82% 0.00in /  0mm
01:22 64.4 °F /  18 °C 58.8 °F /  14.9 °C 30.02in /  1016.5hPa Calm     82% 0.00in /  0mm
01:27 64.0 °F /  17.8 °C 58.1 °F /  14.5 °C 30.02in /  1016.5hPa Calm     81% 0.00in /  0mm
01:32 63.4 °F /  17.4 °C 58.2 °F /  14.6 °C 30.03in /  1016.8hPa Calm     83% 0.00in /  0mm
01:37 63.5 °F /  17.5 °C 58.6 °F /  14.8 °C 30.02in /  1016.5hPa Calm     84% 0.00in /  0mm
01:42 63.5 °F /  17.5 °C 58.6 °F /  14.8 °C 30.02in /  1016.5hPa Calm     84% 0.00in /  0mm
01:47 63.0 °F /  17.2 °C 57.8 °F /  14.3 °C 30.02in /  1016.5hPa Calm     83% 0.00in /  0mm
01:52 62.9 °F /  17.2 °C 58.3 °F /  14.6 °C 30.02in /  1016.5hPa Calm     85% 0.00in /  0mm
01:57 63.2 °F /  17.3 °C 58.6 °F /  14.8 °C 30.01in /  1016.1hPa Calm     85% 0.00in /  0mm
02:02 63.6 °F /  17.6 °C 58.7 °F /  14.8 °C 30.01in /  1016.1hPa SSE 1.0mph /  1.6km/h 2.0mph /  3.2km/h 84% 0.00in /  0mm
02:07 63.8 °F /  17.7 °C 58.9 °F /  14.9 °C 30.01in /  1016.1hPa Calm   2.0mph /  3.2km/h 84% 0.00in /  0mm
02:12 64.0 °F /  17.8 °C 58.7 °F /  14.8 °C 30.01in /  1016.1hPa SE 1.0mph /  1.6km/h 1.0mph /  1.6km/h 83% 0.00in /  0mm
02:17 64.1 °F /  17.8 °C 58.8 °F /  14.9 °C 30.01in /  1016.1hPa SE 1.0mph /  1.6km/h 1.0mph /  1.6km/h 83% 0.00in /  0mm
02:22 64.0 °F /  17.8 °C 58.7 °F /  14.8 °C 30.00in /  1015.8hPa SSE 1.0mph /  1.6km/h 2.0mph /  3.2km/h 83% 0.00in /  0mm
02:27 64.1 °F /  17.8 °C 58.8 °F /  14.9 °C 30.00in /  1015.8hPa SSE 1.0mph /  1.6km/h 2.0mph /  3.2km/h 83% 0.00in /  0mm
02:32 64.2 °F /  17.9 °C 58.9 °F /  14.9 °C 30.00in /  1015.8hPa Calm   1.0mph /  1.6km/h 83% 0.00in /  0mm
02:37 64.2 °F /  17.9 °C 58.9 °F /  14.9 °C 30.00in /  1015.8hPa SSE 1.0mph /  1.6km/h 1.0mph /  1.6km/h 83% 0.00in /  0mm
02:42 64.2 °F /  17.9 °C 58.9 °F /  14.9 °C 30.00in /  1015.8hPa SE 1.0mph /  1.6km/h 2.0mph /  3.2km/h 83% 0.00in /  0mm
02:47 64.1 °F /  17.8 °C 58.8 °F /  14.9 °C 30.00in /  1015.8hPa Calm   1.0mph /  1.6km/h 83% 0.00in /  0mm
02:52 63.8 °F /  17.7 °C 58.9 °F /  14.9 °C 30.00in /  1015.8hPa SSE 1.0mph /  1.6km/h 1.0mph /  1.6km/h 84% 0.00in /  0mm
02:57 63.8 °F /  17.7 °C 58.9 °F /  14.9 °C 30.00in /  1015.8hPa Calm   1.0mph /  1.6km/h 84% 0.00in /  0mm
03:02 63.7 °F /  17.6 °C 58.8 °F /  14.9 °C 30.00in /  1015.8hPa Calm   1.0mph /  1.6km/h 84% 0.00in /  0mm
03:07 63.7 °F /  17.6 °C 58.8 °F /  14.9 °C 30.00in /  1015.8hPa Calm     84% 0.00in /  0mm
03:12 63.7 °F /  17.6 °C 58.8 °F /  14.9 °C 30.00in /  1015.8hPa SSE 1.0mph /  1.6km/h 1.0mph /  1.6km/h 84% 0.00in /  0mm
03:17 63.5 °F /  17.5 °C 58.9 °F /  14.9 °C 30.00in /  1015.8hPa Calm   1.0mph /  1.6km/h 85% 0.00in /  0mm
03:22 63.3 °F /  17.4 °C 58.7 °F /  14.8 °C 30.00in /  1015.8hPa Calm   1.0mph /  1.6km/h 85% 0.00in /  0mm
03:27 63.2 °F /  17.3 °C 59.0 °F /  15 °C 30.00in /  1015.8hPa SSE 1.0mph /  1.6km/h 1.0mph /  1.6km/h 86% 0.00in /  0mm
03:32 63.1 °F /  17.3 °C 58.8 °F /  14.9 °C 30.01in /  1016.1hPa Calm   1.0mph /  1.6km/h 86% 0.00in /  0mm
03:38 62.8 °F /  17.1 °C 58.2 °F /  14.6 °C 30.01in /  1016.1hPa Calm     85% 0.00in /  0mm
03:43 62.2 °F /  16.8 °C 58.0 °F /  14.4 °C 30.01in /  1016.1hPa Calm   1.0mph /  1.6km/h 86% 0.00in /  0mm
03:48 62.0 °F /  16.7 °C 58.4 °F /  14.7 °C 30.00in /  1015.8hPa Calm   1.0mph /  1.6km/h 88% 0.00in /  0mm
03:53 62.6 °F /  17 °C 59.0 °F /  15 °C 30.00in /  1015.8hPa ESE 1.0mph /  1.6km/h 2.0mph /  3.2km/h 88% 0.00in /  0mm
03:58 62.9 °F /  17.2 °C 58.7 °F /  14.8 °C 30.00in /  1015.8hPa SSE 1.0mph /  1.6km/h 2.0mph /  3.2km/h 86% 0.00in /  0mm
04:03 62.9 °F /  17.2 °C 59.0 °F /  15 °C 30.01in /  1016.1hPa SSE 1.0mph /  1.6km/h 2.0mph /  3.2km/h 87% 0.00in /  0mm
04:08 62.9 °F /  17.2 °C 59.0 °F /  15 °C 30.01in /  1016.1hPa SSE 1.0mph /  1.6km/h 2.0mph /  3.2km/h 87% 0.00in /  0mm
04:13 63.0 °F /  17.2 °C 58.8 °F /  14.9 °C 30.02in /  1016.5hPa Calm   1.0mph /  1.6km/h 86% 0.00in /  0mm
04:18 62.8 °F /  17.1 °C 58.9 °F /  14.9 °C 30.02in /  1016.5hPa Calm     87% 0.00in /  0mm
04:23 62.4 °F /  16.9 °C 58.2 °F /  14.6 °C 30.02in /  1016.5hPa Calm     86% 0.00in /  0mm
04:28 61.8 °F /  16.6 °C 57.9 °F /  14.4 °C 30.02in /  1016.5hPa Calm     87% 0.00in /  0mm
04:33 61.6 °F /  16.4 °C 58.3 °F /  14.6 °C 30.02in /  1016.5hPa Calm     89% 0.00in /  0mm
04:38 61.4 °F /  16.3 °C 58.1 °F /  14.5 °C 30.02in /  1016.5hPa Calm     89% 0.00in /  0mm
04:43 61.0 °F /  16.1 °C 57.7 °F /  14.3 °C 30.02in /  1016.5hPa Calm     89% 0.00in /  0mm
04:48 60.8 °F /  16 °C 57.8 °F /  14.3 °C 30.03in /  1016.8hPa Calm     90% 0.00in /  0mm
04:53 60.5 °F /  15.8 °C 57.6 °F /  14.2 °C 30.02in /  1016.5hPa Calm     90% 0.00in /  0mm
04:58 60.1 °F /  15.6 °C 57.2 °F /  14 °C 30.03in /  1016.8hPa Calm     90% 0.00in /  0mm
05:03 59.7 °F /  15.4 °C 57.1 °F /  13.9 °C 30.03in /  1016.8hPa Calm     91% 0.00in /  0mm
05:08 59.5 °F /  15.3 °C 57.2 °F /  14 °C 30.03in /  1016.8hPa Calm     92% 0.00in /  0mm
05:13 59.6 °F /  15.3 °C 57.3 °F /  14.1 °C 30.03in /  1016.8hPa Calm     92% 0.00in /  0mm
05:18 59.5 °F /  15.3 °C 57.2 °F /  14 °C 30.04in /  1017.2hPa Calm     92% 0.00in /  0mm
05:23 59.4 °F /  15.2 °C 57.1 °F /  13.9 °C 30.04in /  1017.2hPa Calm     92% 0.00in /  0mm
05:28 59.3 °F /  15.2 °C 57.3 °F /  14.1 °C 30.04in /  1017.2hPa Calm     93% 0.00in /  0mm
05:33 59.5 °F /  15.3 °C 57.5 °F /  14.2 °C 30.04in /  1017.2hPa Calm     93% 0.00in /  0mm
05:38 59.7 °F /  15.4 °C 57.7 °F /  14.3 °C 30.04in /  1017.2hPa Calm     93% 0.00in /  0mm
05:43 59.5 °F /  15.3 °C 57.5 °F /  14.2 °C 30.04in /  1017.2hPa Calm     93% 0.00in /  0mm
05:48 59.3 °F /  15.2 °C 57.3 °F /  14.1 °C 30.04in /  1017.2hPa Calm     93% 0.00in /  0mm
05:53 59.0 °F /  15 °C 57.0 °F /  13.9 °C 30.04in /  1017.2hPa Calm     93% 0.00in /  0mm
05:59 58.7 °F /  14.8 °C 56.7 °F /  13.7 °C 30.04in /  1017.2hPa Calm     93% 0.00in /  0mm
06:04 58.8 °F /  14.9 °C 57.1 °F /  13.9 °C 30.04in /  1017.2hPa Calm     94% 0.00in /  0mm
06:09 58.8 °F /  14.9 °C 57.1 °F /  13.9 °C 30.04in /  1017.2hPa Calm     94% 0.00in /  0mm
06:14 58.6 °F /  14.8 °C 56.9 °F /  13.8 °C 30.04in /  1017.2hPa Calm     94% 0.00in /  0mm
06:19 58.5 °F /  14.7 °C 56.8 °F /  13.8 °C 30.04in /  1017.2hPa Calm     94% 0.00in /  0mm
06:24 58.3 °F /  14.6 °C 56.6 °F /  13.7 °C 30.05in /  1017.5hPa Calm     94% 0.00in /  0mm
06:29 58.7 °F /  14.8 °C 57.0 °F /  13.9 °C 30.05in /  1017.5hPa Calm     94% 0.00in /  0mm
06:34 59.2 °F /  15.1 °C 57.5 °F /  14.2 °C 30.05in /  1017.5hPa Calm     94% 0.00in /  0mm
06:39 59.7 °F /  15.4 °C 58.0 °F /  14.4 °C 30.05in /  1017.5hPa Calm     94% 0.00in /  0mm
06:44 60.2 °F /  15.7 °C 58.5 °F /  14.7 °C 30.05in /  1017.5hPa Calm     94% 0.00in /  0mm
06:49 60.2 °F /  15.7 °C 58.2 °F /  14.6 °C 30.05in /  1017.5hPa Calm     93% 0.00in /  0mm
06:54 60.5 °F /  15.8 °C 58.5 °F /  14.7 °C 30.05in /  1017.5hPa Calm   1.0mph /  1.6km/h 93% 0.00in /  0mm
06:59 60.9 °F /  16.1 °C 58.6 °F /  14.8 °C 30.05in /  1017.5hPa ESE 1.0mph /  1.6km/h 1.0mph /  1.6km/h 92% 0.00in /  0mm
07:04 61.0 °F /  16.1 °C 58.7 °F /  14.8 °C 30.06in /  1017.8hPa ESE 1.0mph /  1.6km/h 1.0mph /  1.6km/h 92% 0.00in /  0mm
07:09 61.0 °F /  16.1 °C 58.4 °F /  14.7 °C 30.06in /  1017.8hPa Calm     91% 0.00in /  0mm
07:14 60.7 °F /  15.9 °C 58.1 °F /  14.5 °C 30.06in /  1017.8hPa Calm     91% 0.00in /  0mm
07:19 60.2 °F /  15.7 °C 57.6 °F /  14.2 °C 30.06in /  1017.8hPa Calm     91% 0.00in /  0mm
07:24 59.9 °F /  15.5 °C 57.3 °F /  14.1 °C 30.06in /  1017.8hPa Calm     91% 0.00in /  0mm
07:29 59.6 °F /  15.3 °C 57.3 °F /  14.1 °C 30.07in /  1018.2hPa Calm     92% 0.00in /  0mm
07:34 59.5 °F /  15.3 °C 57.2 °F /  14 °C 30.06in /  1017.8hPa Calm     92% 0.00in /  0mm
07:39 60.1 °F /  15.6 °C 58.1 °F /  14.5 °C 30.07in /  1018.2hPa Calm     93% 0.00in /  0mm
07:44 60.7 °F /  15.9 °C 58.7 °F /  14.8 °C 30.07in /  1018.2hPa Calm   1.0mph /  1.6km/h 93% 0.00in /  0mm
07:49 61.3 °F /  16.3 °C 59.0 °F /  15 °C 30.07in /  1018.2hPa SE 1.0mph /  1.6km/h 2.0mph /  3.2km/h 92% 0.00in /  0mm
07:54 62.2 °F /  16.8 °C 59.5 °F /  15.3 °C 30.07in /  1018.2hPa SE 1.0mph /  1.6km/h 2.0mph /  3.2km/h 91% 0.00in /  0mm
07:59 63.3 °F /  17.4 °C 60.3 °F /  15.7 °C 30.07in /  1018.2hPa SE 2.0mph /  3.2km/h 2.0mph /  3.2km/h 90% 0.00in /  0mm
08:04 64.6 °F /  18.1 °C 61.3 °F /  16.3 °C 30.07in /  1018.2hPa SSE 1.0mph /  1.6km/h 3.0mph /  4.8km/h 89% 0.00in /  0mm
08:09 65.7 °F /  18.7 °C 61.7 °F /  16.5 °C 30.08in /  1018.5hPa SSE 2.0mph /  3.2km/h 3.0mph /  4.8km/h 87% 0.00in /  0mm
08:15 66.5 °F /  19.2 °C 62.2 °F /  16.8 °C 30.08in /  1018.5hPa SE 2.0mph /  3.2km/h 2.0mph /  3.2km/h 86% 0.00in /  0mm
08:20 67.0 °F /  19.4 °C 62.0 °F /  16.7 °C 30.08in /  1018.5hPa SE 2.0mph /  3.2km/h 3.0mph /  4.8km/h 84% 0.00in /  0mm
08:25 67.3 °F /  19.6 °C 62.6 °F /  17 °C 30.08in /  1018.5hPa SE 2.0mph /  3.2km/h 2.0mph /  3.2km/h 85% 0.00in /  0mm
08:30 67.4 °F /  19.7 °C 62.4 °F /  16.9 °C 30.08in /  1018.5hPa SSE 3.0mph /  4.8km/h 3.0mph /  4.8km/h 84% 0.00in /  0mm
08:35 67.6 °F /  19.8 °C 62.3 °F /  16.8 °C 30.08in /  1018.5hPa SE 2.0mph /  3.2km/h 3.0mph /  4.8km/h 83% 0.00in /  0mm
08:40 67.8 °F /  19.9 °C 63.1 °F /  17.3 °C 30.08in /  1018.5hPa SSE 4.0mph /  6.4km/h 4.0mph /  6.4km/h 85% 0.00in /  0mm
08:45 67.7 °F /  19.8 °C 63.0 °F /  17.2 °C 30.08in /  1018.5hPa SE 3.0mph /  4.8km/h 4.0mph /  6.4km/h 85% 0.00in /  0mm
08:50 67.6 °F /  19.8 °C 62.9 °F /  17.2 °C 30.08in /  1018.5hPa SE 3.0mph /  4.8km/h 5.0mph /  8km/h 85% 0.00in /  0mm
08:55 67.9 °F /  19.9 °C 62.9 °F /  17.2 °C 30.08in /  1018.5hPa SSE 3.0mph /  4.8km/h 6.0mph /  9.7km/h 84% 0.00in /  0mm
09:00 68.6 °F /  20.3 °C 63.6 °F /  17.6 °C 30.09in /  1018.8hPa SE 3.0mph /  4.8km/h 4.0mph /  6.4km/h 84% 0.00in /  0mm
09:05 69.2 °F /  20.7 °C 63.5 °F /  17.5 °C 30.09in /  1018.8hPa SSE 4.0mph /  6.4km/h 4.0mph /  6.4km/h 82% 0.00in /  0mm
09:10 69.9 °F /  21.1 °C 63.8 °F /  17.7 °C 30.09in /  1018.8hPa SSW 3.0mph /  4.8km/h 4.0mph /  6.4km/h 81% 0.00in /  0mm
09:15 70.6 °F /  21.4 °C 63.8 °F /  17.7 °C 30.09in /  1018.8hPa SSW 3.0mph /  4.8km/h 6.0mph /  9.7km/h 79% 0.00in /  0mm
09:20 71.1 °F /  21.7 °C 64.3 °F /  17.9 °C 30.09in /  1018.8hPa South 3.0mph /  4.8km/h 6.0mph /  9.7km/h 79% 0.00in /  0mm
09:25 71.6 °F /  22 °C 64.8 °F /  18.2 °C 30.09in /  1018.8hPa South 3.0mph /  4.8km/h 4.0mph /  6.4km/h 79% 0.00in /  0mm
09:30 72.2 °F /  22.3 °C 65.0 °F /  18.3 °C 30.09in /  1018.8hPa SSW 2.0mph /  3.2km/h 5.0mph /  8km/h 78% 0.00in /  0mm
09:35 72.7 °F /  22.6 °C 65.4 °F /  18.6 °C 30.09in /  1018.8hPa SSE 3.0mph /  4.8km/h 7.0mph /  11.3km/h 78% 0.00in /  0mm
09:40 73.1 °F /  22.8 °C 65.1 °F /  18.4 °C 30.09in /  1018.8hPa South 5.0mph /  8km/h 7.0mph /  11.3km/h 76% 0.00in /  0mm
09:45 73.5 °F /  23.1 °C 65.5 °F /  18.6 °C 30.09in /  1018.8hPa SSW 3.0mph /  4.8km/h 7.0mph /  11.3km/h 76% 0.00in /  0mm
09:47 73.7 °F /  23.2 °C 65.7 °F /  18.7 °C 30.09in /  1018.8hPa SW 6.0mph /  9.7km/h 7.0mph /  11.3km/h 76% 0.00in /  0mm
09:52 74.1 °F /  23.4 °C 66.1 °F /  18.9 °C 30.09in /  1018.8hPa SW 9.0mph /  14.5km/h 10.0mph /  16.1km/h 76% 0.00in /  0mm
09:57 74.3 °F /  23.5 °C 65.9 °F /  18.8 °C 30.09in /  1018.8hPa SW 8.0mph /  12.9km/h 12.0mph /  19.3km/h 75% 0.00in /  0mm
10:02 74.8 °F /  23.8 °C 66.7 °F /  19.3 °C 30.09in /  1018.8hPa South 5.0mph /  8km/h 11.0mph /  17.7km/h 76% 0.00in /  0mm
10:07 74.9 °F /  23.8 °C 66.8 °F /  19.3 °C 30.09in /  1018.8hPa SW 9.0mph /  14.5km/h 11.0mph /  17.7km/h 76% 0.00in /  0mm
10:13 75.1 °F /  23.9 °C 67.4 °F /  19.7 °C 30.08in /  1018.5hPa South 5.0mph /  8km/h 8.0mph /  12.9km/h 77% 0.00in /  0mm
10:18 75.4 °F /  24.1 °C 66.9 °F /  19.4 °C 30.08in /  1018.5hPa SW 4.0mph /  6.4km/h 11.0mph /  17.7km/h 75% 0.00in /  0mm
10:23 75.8 °F /  24.3 °C 67.3 °F /  19.6 °C 30.08in /  1018.5hPa SE 7.0mph /  11.3km/h 10.0mph /  16.1km/h 75% 0.00in /  0mm
10:28 76.1 °F /  24.5 °C 67.2 °F /  19.6 °C 30.08in /  1018.5hPa South 6.0mph /  9.7km/h 8.0mph /  12.9km/h 74% 0.00in /  0mm
10:33 76.2 °F /  24.6 °C 66.9 °F /  19.4 °C 30.08in /  1018.5hPa SSW 5.0mph /  8km/h 10.0mph /  16.1km/h 73% 0.00in /  0mm
10:38 76.4 °F /  24.7 °C 67.1 °F /  19.5 °C 30.08in /  1018.5hPa SW 7.0mph /  11.3km/h 11.0mph /  17.7km/h 73% 0.00in /  0mm
10:43 76.6 °F /  24.8 °C 66.9 °F /  19.4 °C 30.08in /  1018.5hPa South 5.0mph /  8km/h 13.0mph /  20.9km/h 72% 0.00in /  0mm
10:48 76.8 °F /  24.9 °C 67.9 °F /  19.9 °C 30.08in /  1018.5hPa SSW 3.0mph /  4.8km/h 11.0mph /  17.7km/h 74% 0.00in /  0mm
10:53 77.0 °F /  25 °C 67.7 °F /  19.8 °C 30.08in /  1018.5hPa SSW 7.0mph /  11.3km/h 11.0mph /  17.7km/h 73% 0.00in /  0mm
10:58 77.1 °F /  25.1 °C 68.6 °F /  20.3 °C 30.08in /  1018.5hPa SSE 7.0mph /  11.3km/h 10.0mph /  16.1km/h 75% 0.00in /  0mm
11:03 77.6 °F /  25.3 °C 67.5 °F /  19.7 °C 30.08in /  1018.5hPa SW 7.0mph /  11.3km/h 14.0mph /  22.5km/h 71% 0.00in /  0mm
11:08 77.9 °F /  25.5 °C 68.2 °F /  20.1 °C 30.08in /  1018.5hPa SW 10.0mph /  16.1km/h 11.0mph /  17.7km/h 72% 0.00in /  0mm
11:13 78.0 °F /  25.6 °C 68.2 °F /  20.1 °C 30.08in /  1018.5hPa SW 8.0mph /  12.9km/h 13.0mph /  20.9km/h 72% 0.00in /  0mm
11:18 78.2 °F /  25.7 °C 68.0 °F /  20 °C 30.08in /  1018.5hPa SSW 5.0mph /  8km/h 11.0mph /  17.7km/h 71% 0.00in /  0mm
11:23 78.5 °F /  25.8 °C 68.3 °F /  20.2 °C 30.08in /  1018.5hPa SW 6.0mph /  9.7km/h 11.0mph /  17.7km/h 71% 0.00in /  0mm
11:28 78.6 °F /  25.9 °C 68.0 °F /  20 °C 30.08in /  1018.5hPa SW 6.0mph /  9.7km/h 9.0mph /  14.5km/h 70% 0.00in /  0mm
11:33 78.7 °F /  25.9 °C 68.1 °F /  20.1 °C 30.08in /  1018.5hPa South 5.0mph /  8km/h 10.0mph /  16.1km/h 70% 0.00in /  0mm
11:38 78.5 °F /  25.8 °C 68.3 °F /  20.2 °C 30.08in /  1018.5hPa SW 8.0mph /  12.9km/h 12.0mph /  19.3km/h 71% 0.00in /  0mm
11:43 78.1 °F /  25.6 °C 67.5 °F /  19.7 °C 30.08in /  1018.5hPa SW 6.0mph /  9.7km/h 11.0mph /  17.7km/h 70% 0.00in /  0mm
11:49 78.5 °F /  25.8 °C 67.5 °F /  19.7 °C 30.08in /  1018.5hPa SW 5.0mph /  8km/h 10.0mph /  16.1km/h 69% 0.00in /  0mm
11:54 79.1 °F /  26.2 °C 68.1 °F /  20.1 °C 30.08in /  1018.5hPa SW 11.0mph /  17.7km/h 13.0mph /  20.9km/h 69% 0.00in /  0mm
11:59 79.4 °F /  26.3 °C 67.9 °F /  19.9 °C 30.08in /  1018.5hPa SSW 4.0mph /  6.4km/h 10.0mph /  16.1km/h 68% 0.00in /  0mm
12:04 79.8 °F /  26.6 °C 68.3 °F /  20.2 °C 30.08in /  1018.5hPa SW 8.0mph /  12.9km/h 14.0mph /  22.5km/h 68% 0.00in /  0mm
12:09 80.1 °F /  26.7 °C 67.7 °F /  19.8 °C 30.08in /  1018.5hPa SW 10.0mph /  16.1km/h 13.0mph /  20.9km/h 66% 0.00in /  0mm
12:14 79.9 °F /  26.6 °C 68.0 °F /  20 °C 30.07in /  1018.2hPa SSW 7.0mph /  11.3km/h 11.0mph /  17.7km/h 67% 0.00in /  0mm
12:19 80.4 °F /  26.9 °C 68.0 °F /  20 °C 30.07in /  1018.2hPa SSW 7.0mph /  11.3km/h 11.0mph /  17.7km/h 66% 0.00in /  0mm
12:24 80.5 °F /  26.9 °C 68.1 °F /  20.1 °C 30.07in /  1018.2hPa WSW 11.0mph /  17.7km/h 13.0mph /  20.9km/h 66% 0.00in /  0mm
12:29 80.9 °F /  27.2 °C 68.0 °F /  20 °C 30.07in /  1018.2hPa SSW 10.0mph /  16.1km/h 10.0mph /  16.1km/h 65% 0.00in /  0mm
12:34 81.1 °F /  27.3 °C 69.1 °F /  20.6 °C 30.07in /  1018.2hPa SSE 10.0mph /  16.1km/h 11.0mph /  17.7km/h 67% 0.00in /  0mm
12:39 81.2 °F /  27.3 °C 68.8 °F /  20.4 °C 30.07in /  1018.2hPa South 6.0mph /  9.7km/h 11.0mph /  17.7km/h 66% 0.00in /  0mm
12:44 81.3 °F /  27.4 °C 68.0 °F /  20 °C 30.07in /  1018.2hPa WSW 12.0mph /  19.3km/h 12.0mph /  19.3km/h 64% 0.00in /  0mm
12:49 81.4 °F /  27.4 °C 69.0 °F /  20.6 °C 30.06in /  1017.8hPa SW 7.0mph /  11.3km/h 11.0mph /  17.7km/h 66% 0.00in /  0mm
12:54 81.5 °F /  27.5 °C 67.7 °F /  19.8 °C 30.06in /  1017.8hPa SW 5.0mph /  8km/h 11.0mph /  17.7km/h 63% 0.00in /  0mm
12:59 81.6 °F /  27.6 °C 69.2 °F /  20.7 °C 30.06in /  1017.8hPa SW 11.0mph /  17.7km/h 13.0mph /  20.9km/h 66% 0.00in /  0mm
13:04 81.6 °F /  27.6 °C 67.8 °F /  19.9 °C 30.06in /  1017.8hPa WSW 9.0mph /  14.5km/h 12.0mph /  19.3km/h 63% 0.00in /  0mm
13:09 81.6 °F /  27.6 °C 67.8 °F /  19.9 °C 30.05in /  1017.5hPa SW 8.0mph /  12.9km/h 12.0mph /  19.3km/h 63% 0.00in /  0mm
13:14 81.5 °F /  27.5 °C 68.6 °F /  20.3 °C 30.05in /  1017.5hPa SW 5.0mph /  8km/h 10.0mph /  16.1km/h 65% 0.00in /  0mm
13:19 81.7 °F /  27.6 °C 68.3 °F /  20.2 °C 30.05in /  1017.5hPa SSW 6.0mph /  9.7km/h 13.0mph /  20.9km/h 64% 0.00in /  0mm
13:24 82.5 °F /  28.1 °C 68.6 °F /  20.3 °C 30.06in /  1017.8hPa SW 6.0mph /  9.7km/h 11.0mph /  17.7km/h 63% 0.00in /  0mm
13:29 81.9 °F /  27.7 °C 67.6 °F /  19.8 °C 30.05in /  1017.5hPa SSW 7.0mph /  11.3km/h 15.0mph /  24.1km/h 62% 0.00in /  0mm
13:34 82.2 °F /  27.9 °C 67.4 °F /  19.7 °C 30.05in /  1017.5hPa South 5.0mph /  8km/h 11.0mph /  17.7km/h 61% 0.00in /  0mm
13:39 82.3 °F /  27.9 °C 67.5 °F /  19.7 °C 30.05in /  1017.5hPa SSE 5.0mph /  8km/h 15.0mph /  24.1km/h 61% 0.00in /  0mm
13:44 82.1 °F /  27.8 °C 67.8 °F /  19.9 °C 30.05in /  1017.5hPa SSW 9.0mph /  14.5km/h 9.0mph /  14.5km/h 62% 0.00in /  0mm
13:49 82.2 °F /  27.9 °C 66.9 °F /  19.4 °C 30.05in /  1017.5hPa SW 13.0mph /  20.9km/h 13.0mph /  20.9km/h 60% 0.00in /  0mm
13:54 82.0 °F /  27.8 °C 67.7 °F /  19.8 °C 30.04in /  1017.2hPa South 6.0mph /  9.7km/h 16.0mph /  25.7km/h 62% 0.00in /  0mm
13:59 82.3 °F /  27.9 °C 67.5 °F /  19.7 °C 30.04in /  1017.2hPa SW 13.0mph /  20.9km/h 14.0mph /  22.5km/h 61% 0.00in /  0mm
14:04 82.3 °F /  27.9 °C 67.5 °F /  19.7 °C 30.04in /  1017.2hPa SW 10.0mph /  16.1km/h 14.0mph /  22.5km/h 61% 0.00in /  0mm
14:09 82.4 °F /  28 °C 67.1 °F /  19.5 °C 30.04in /  1017.2hPa WSW 5.0mph /  8km/h 10.0mph /  16.1km/h 60% 0.00in /  0mm
14:14 82.5 °F /  28.1 °C 67.7 °F /  19.8 °C 30.03in /  1016.8hPa SSW 5.0mph /  8km/h 10.0mph /  16.1km/h 61% 0.00in /  0mm
14:19 82.8 °F /  28.2 °C 66.5 °F /  19.2 °C 30.04in /  1017.2hPa SSW 10.0mph /  16.1km/h 14.0mph /  22.5km/h 58% 0.00in /  0mm
14:24 82.8 °F /  28.2 °C 67.0 °F /  19.4 °C 30.04in /  1017.2hPa SSW 10.0mph /  16.1km/h 12.0mph /  19.3km/h 59% 0.00in /  0mm
14:29 82.9 °F /  28.3 °C 66.6 °F /  19.2 °C 30.04in /  1017.2hPa SW 9.0mph /  14.5km/h 10.0mph /  16.1km/h 58% 0.00in /  0mm
14:34 82.7 °F /  28.2 °C 66.4 °F /  19.1 °C 30.03in /  1016.8hPa WSW 3.0mph /  4.8km/h 8.0mph /  12.9km/h 58% 0.00in /  0mm
14:39 82.6 °F /  28.1 °C 66.3 °F /  19.1 °C 30.03in /  1016.8hPa SW 9.0mph /  14.5km/h 10.0mph /  16.1km/h 58% 0.00in /  0mm
14:44 82.4 °F /  28 °C 66.7 °F /  19.3 °C 30.03in /  1016.8hPa SW 10.0mph /  16.1km/h 10.0mph /  16.1km/h 59% 0.00in /  0mm
14:50 82.9 °F /  28.3 °C 68.1 °F /  20.1 °C 30.03in /  1016.8hPa SSW 5.0mph /  8km/h 9.0mph /  14.5km/h 61% 0.00in /  0mm
14:55 82.9 °F /  28.3 °C 66.1 °F /  18.9 °C 30.03in /  1016.8hPa SSW 8.0mph /  12.9km/h 13.0mph /  20.9km/h 57% 0.00in /  0mm
15:00 82.6 °F /  28.1 °C 67.3 °F /  19.6 °C 30.03in /  1016.8hPa SSW 4.0mph /  6.4km/h 12.0mph /  19.3km/h 60% 0.00in /  0mm
15:05 83.0 °F /  28.3 °C 67.2 °F /  19.6 °C 30.02in /  1016.5hPa SSE 5.0mph /  8km/h 11.0mph /  17.7km/h 59% 0.00in /  0mm
15:10 83.4 °F /  28.6 °C 66.6 °F /  19.2 °C 30.02in /  1016.5hPa SSW 5.0mph /  8km/h 12.0mph /  19.3km/h 57% 0.00in /  0mm
15:15 83.7 °F /  28.7 °C 66.9 °F /  19.4 °C 30.02in /  1016.5hPa SSW 4.0mph /  6.4km/h 11.0mph /  17.7km/h 57% 0.00in /  0mm
15:20 83.9 °F /  28.8 °C 66.5 °F /  19.2 °C 30.01in /  1016.1hPa SW 4.0mph /  6.4km/h 8.0mph /  12.9km/h 56% 0.00in /  0mm
15:25 83.4 °F /  28.6 °C 66.1 °F /  18.9 °C 30.01in /  1016.1hPa South 9.0mph /  14.5km/h 13.0mph /  20.9km/h 56% 0.00in /  0mm
15:30 83.1 °F /  28.4 °C 66.3 °F /  19.1 °C 30.02in /  1016.5hPa SSW 8.0mph /  12.9km/h 11.0mph /  17.7km/h 57% 0.00in /  0mm
15:35 83.0 °F /  28.3 °C 66.7 °F /  19.3 °C 30.01in /  1016.1hPa SW 4.0mph /  6.4km/h 10.0mph /  16.1km/h 58% 0.00in /  0mm
15:40 83.4 °F /  28.6 °C 67.1 °F /  19.5 °C 30.00in /  1015.8hPa South 5.0mph /  8km/h 9.0mph /  14.5km/h 58% 0.00in /  0mm
15:45 83.7 °F /  28.7 °C 66.3 °F /  19.1 °C 30.00in /  1015.8hPa South 5.0mph /  8km/h 11.0mph /  17.7km/h 56% 0.00in /  0mm
15:50 83.4 °F /  28.6 °C 66.1 °F /  18.9 °C 30.00in /  1015.8hPa South 9.0mph /  14.5km/h 11.0mph /  17.7km/h 56% 0.00in /  0mm
15:55 83.0 °F /  28.3 °C 66.7 °F /  19.3 °C 30.00in /  1015.8hPa SSW 5.0mph /  8km/h 9.0mph /  14.5km/h 58% 0.00in /  0mm
16:00 83.0 °F /  28.3 °C 64.7 °F /  18.2 °C 30.00in /  1015.8hPa SSW 12.0mph /  19.3km/h 12.0mph /  19.3km/h 54% 0.00in /  0mm
16:05 83.1 °F /  28.4 °C 65.3 °F /  18.5 °C 30.00in /  1015.8hPa SSW 8.0mph /  12.9km/h 14.0mph /  22.5km/h 55% 0.00in /  0mm
16:11 83.2 °F /  28.4 °C 65.4 °F /  18.6 °C 30.00in /  1015.8hPa WSW 7.0mph /  11.3km/h 15.0mph /  24.1km/h 55% 0.00in /  0mm
16:16 83.3 °F /  28.5 °C 64.4 °F /  18 °C 29.99in /  1015.5hPa SW 11.0mph /  17.7km/h 15.0mph /  24.1km/h 53% 0.00in /  0mm
16:21 83.4 °F /  28.6 °C 65.0 °F /  18.3 °C 30.00in /  1015.8hPa SW 9.0mph /  14.5km/h 14.0mph /  22.5km/h 54% 0.00in /  0mm
16:26 83.2 °F /  28.4 °C 64.3 °F /  17.9 °C 29.99in /  1015.5hPa SSW 6.0mph /  9.7km/h 11.0mph /  17.7km/h 53% 0.00in /  0mm
16:31 83.1 °F /  28.4 °C 64.8 °F /  18.2 °C 29.99in /  1015.5hPa SSW 8.0mph /  12.9km/h 10.0mph /  16.1km/h 54% 0.00in /  0mm
16:36 82.9 °F /  28.3 °C 64.6 °F /  18.1 °C 29.99in /  1015.5hPa South 9.0mph /  14.5km/h 12.0mph /  19.3km/h 54% 0.00in /  0mm
16:41 82.8 °F /  28.2 °C 65.0 °F /  18.3 °C 29.99in /  1015.5hPa SSW 5.0mph /  8km/h 11.0mph /  17.7km/h 55% 0.00in /  0mm
16:46 83.0 °F /  28.3 °C 65.7 °F /  18.7 °C 29.99in /  1015.5hPa SW 8.0mph /  12.9km/h 12.0mph /  19.3km/h 56% 0.00in /  0mm
16:51 82.8 °F /  28.2 °C 65.0 °F /  18.3 °C 29.99in /  1015.5hPa South 6.0mph /  9.7km/h 11.0mph /  17.7km/h 55% 0.00in /  0mm
16:52 82.9 °F /  28.3 °C 66.1 °F /  18.9 °C 29.99in /  1015.5hPa South 2.0mph /  3.2km/h 11.0mph /  17.7km/h 57% 0.00in /  0mm
16:57 83.0 °F /  28.3 °C 65.2 °F /  18.4 °C 29.98in /  1015.1hPa SSW 4.0mph /  6.4km/h 11.0mph /  17.7km/h 55% 0.00in /  0mm
17:02 83.1 °F /  28.4 °C 66.3 °F /  19.1 °C 29.98in /  1015.1hPa SSW 7.0mph /  11.3km/h 11.0mph /  17.7km/h 57% 0.00in /  0mm
17:07 83.5 °F /  28.6 °C 65.7 °F /  18.7 °C 29.98in /  1015.1hPa SSW 5.0mph /  8km/h 11.0mph /  17.7km/h 55% 0.00in /  0mm
17:12 83.4 °F /  28.6 °C 66.1 °F /  18.9 °C 29.98in /  1015.1hPa SW 6.0mph /  9.7km/h 8.0mph /  12.9km/h 56% 0.00in /  0mm
17:17 83.4 °F /  28.6 °C 65.6 °F /  18.7 °C 29.98in /  1015.1hPa SSW 6.0mph /  9.7km/h 9.0mph /  14.5km/h 55% 0.00in /  0mm
17:22 83.4 °F /  28.6 °C 65.6 °F /  18.7 °C 29.98in /  1015.1hPa South 7.0mph /  11.3km/h 8.0mph /  12.9km/h 55% 0.00in /  0mm
17:27 83.4 °F /  28.6 °C 66.1 °F /  18.9 °C 29.98in /  1015.1hPa SW 4.0mph /  6.4km/h 7.0mph /  11.3km/h 56% 0.00in /  0mm
17:32 83.3 °F /  28.5 °C 66.0 °F /  18.9 °C 29.99in /  1015.5hPa South 4.0mph /  6.4km/h 8.0mph /  12.9km/h 56% 0.00in /  0mm
17:37 83.4 °F /  28.6 °C 66.6 °F /  19.2 °C 29.98in /  1015.1hPa SW 10.0mph /  16.1km/h 12.0mph /  19.3km/h 57% 0.00in /  0mm
17:42 83.3 °F /  28.5 °C 64.9 °F /  18.3 °C 29.99in /  1015.5hPa South 6.0mph /  9.7km/h 10.0mph /  16.1km/h 54% 0.00in /  0mm
17:47 83.6 °F /  28.7 °C 65.7 °F /  18.7 °C 29.98in /  1015.1hPa WSW 10.0mph /  16.1km/h 10.0mph /  16.1km/h 55% 0.00in /  0mm
17:52 84.0 °F /  28.9 °C 66.6 °F /  19.2 °C 29.98in /  1015.1hPa West 8.0mph /  12.9km/h 9.0mph /  14.5km/h 56% 0.00in /  0mm
17:57 83.8 °F /  28.8 °C 65.4 °F /  18.6 °C 29.98in /  1015.1hPa SW 15.0mph /  24.1km/h 15.0mph /  24.1km/h 54% 0.00in /  0mm
18:02 83.5 °F /  28.6 °C 65.7 °F /  18.7 °C 29.98in /  1015.1hPa SSW 4.0mph /  6.4km/h 10.0mph /  16.1km/h 55% 0.00in /  0mm
18:07 83.5 °F /  28.6 °C 65.7 °F /  18.7 °C 29.98in /  1015.1hPa WSW 4.0mph /  6.4km/h 12.0mph /  19.3km/h 55% 0.00in /  0mm
18:12 83.4 °F /  28.6 °C 66.1 °F /  18.9 °C 29.98in /  1015.1hPa West 3.0mph /  4.8km/h 12.0mph /  19.3km/h 56% 0.00in /  0mm
18:17 83.6 °F /  28.7 °C 66.3 °F /  19.1 °C 29.98in /  1015.1hPa SSW 4.0mph /  6.4km/h 10.0mph /  16.1km/h 56% 0.00in /  0mm
18:22 83.3 °F /  28.5 °C 66.0 °F /  18.9 °C 29.98in /  1015.1hPa SSW 3.0mph /  4.8km/h 8.0mph /  12.9km/h 56% 0.00in /  0mm
18:27 83.1 °F /  28.4 °C 65.8 °F /  18.8 °C 29.98in /  1015.1hPa SW 7.0mph /  11.3km/h 8.0mph /  12.9km/h 56% 0.00in /  0mm
18:32 82.8 °F /  28.2 °C 66.5 °F /  19.2 °C 29.98in /  1015.1hPa WSW 6.0mph /  9.7km/h 7.0mph /  11.3km/h 58% 0.00in /  0mm
18:37 82.3 °F /  27.9 °C 66.1 °F /  18.9 °C 29.98in /  1015.1hPa SW 7.0mph /  11.3km/h 10.0mph /  16.1km/h 58% 0.00in /  0mm
18:42 81.9 °F /  27.7 °C 66.2 °F /  19 °C 29.98in /  1015.1hPa SSW 3.0mph /  4.8km/h 10.0mph /  16.1km/h 59% 0.00in /  0mm
18:48 81.5 °F /  27.5 °C 65.8 °F /  18.8 °C 29.98in /  1015.1hPa SW 3.0mph /  4.8km/h 6.0mph /  9.7km/h 59% 0.00in /  0mm
18:53 81.1 °F /  27.3 °C 66.4 °F /  19.1 °C 29.99in /  1015.5hPa SW 9.0mph /  14.5km/h 9.0mph /  14.5km/h 61% 0.00in /  0mm
18:58 80.8 °F /  27.1 °C 65.6 °F /  18.7 °C 29.98in /  1015.1hPa WSW 4.0mph /  6.4km/h 8.0mph /  12.9km/h 60% 0.00in /  0mm
19:03 80.5 °F /  26.9 °C 65.8 °F /  18.8 °C 29.98in /  1015.1hPa SW 2.0mph /  3.2km/h 8.0mph /  12.9km/h 61% 0.00in /  0mm
19:08 80.4 °F /  26.9 °C 65.7 °F /  18.7 °C 29.98in /  1015.1hPa SW 2.0mph /  3.2km/h 4.0mph /  6.4km/h 61% 0.00in /  0mm
19:13 80.6 °F /  27 °C 65.9 °F /  18.8 °C 29.98in /  1015.1hPa SSE 1.0mph /  1.6km/h 5.0mph /  8km/h 61% 0.00in /  0mm
19:18 80.6 °F /  27 °C 66.4 °F /  19.1 °C 29.97in /  1014.8hPa South 4.0mph /  6.4km/h 4.0mph /  6.4km/h 62% 0.00in /  0mm
19:23 80.5 °F /  26.9 °C 66.3 °F /  19.1 °C 29.97in /  1014.8hPa South 4.0mph /  6.4km/h 5.0mph /  8km/h 62% 0.00in /  0mm
19:28 80.4 °F /  26.9 °C 66.2 °F /  19 °C 29.97in /  1014.8hPa South 4.0mph /  6.4km/h 5.0mph /  8km/h 62% 0.00in /  0mm
19:33 80.6 °F /  27 °C 66.8 °F /  19.3 °C 29.97in /  1014.8hPa South 3.0mph /  4.8km/h 4.0mph /  6.4km/h 63% 0.00in /  0mm
19:38 80.6 °F /  27 °C 66.4 °F /  19.1 °C 29.97in /  1014.8hPa SSE 3.0mph /  4.8km/h 4.0mph /  6.4km/h 62% 0.00in /  0mm
19:43 80.8 °F /  27.1 °C 66.1 °F /  18.9 °C 29.97in /  1014.8hPa SSW 2.0mph /  3.2km/h 5.0mph /  8km/h 61% 0.00in /  0mm
19:48 80.8 °F /  27.1 °C 66.6 °F /  19.2 °C 29.97in /  1014.8hPa South 3.0mph /  4.8km/h 5.0mph /  8km/h 62% 0.00in /  0mm
19:53 80.7 °F /  27.1 °C 66.5 °F /  19.2 °C 29.97in /  1014.8hPa SSE 3.0mph /  4.8km/h 6.0mph /  9.7km/h 62% 0.00in /  0mm
19:58 80.5 °F /  26.9 °C 66.3 °F /  19.1 °C 29.97in /  1014.8hPa SSW 4.0mph /  6.4km/h 5.0mph /  8km/h 62% 0.00in /  0mm
20:03 80.4 °F /  26.9 °C 66.7 °F /  19.3 °C 29.97in /  1014.8hPa SSE 2.0mph /  3.2km/h 4.0mph /  6.4km/h 63% 0.00in /  0mm
20:08 80.1 °F /  26.7 °C 65.9 °F /  18.8 °C 29.97in /  1014.8hPa SSW 2.0mph /  3.2km/h 4.0mph /  6.4km/h 62% 0.00in /  0mm
20:13 79.6 °F /  26.4 °C 65.9 °F /  18.8 °C 29.97in /  1014.8hPa SW 2.0mph /  3.2km/h 7.0mph /  11.3km/h 63% 0.00in /  0mm
20:18 78.6 °F /  25.9 °C 65.9 °F /  18.8 °C 29.98in /  1015.1hPa South 3.0mph /  4.8km/h 4.0mph /  6.4km/h 65% 0.00in /  0mm
20:23 77.9 °F /  25.5 °C 65.2 °F /  18.4 °C 29.98in /  1015.1hPa SSW 1.0mph /  1.6km/h 3.0mph /  4.8km/h 65% 0.00in /  0mm
20:28 77.4 °F /  25.2 °C 65.6 °F /  18.7 °C 29.98in /  1015.1hPa SSW 1.0mph /  1.6km/h 2.0mph /  3.2km/h 67% 0.00in /  0mm
20:33 76.9 °F /  24.9 °C 65.5 °F /  18.6 °C 29.98in /  1015.1hPa Calm   1.0mph /  1.6km/h 68% 0.00in /  0mm
20:38 76.3 °F /  24.6 °C 65.4 °F /  18.6 °C 29.98in /  1015.1hPa Calm   1.0mph /  1.6km/h 69% 0.00in /  0mm
20:43 75.7 °F /  24.3 °C 65.2 °F /  18.4 °C 29.98in /  1015.1hPa South 1.0mph /  1.6km/h 1.0mph /  1.6km/h 70% 0.00in /  0mm
20:48 75.3 °F /  24.1 °C 65.3 °F /  18.5 °C 29.98in /  1015.1hPa SSE 1.0mph /  1.6km/h 2.0mph /  3.2km/h 71% 0.00in /  0mm
20:53 74.9 °F /  23.8 °C 65.3 °F /  18.5 °C 29.99in /  1015.5hPa Calm     72% 0.00in /  0mm
20:58 74.4 °F /  23.6 °C 65.2 °F /  18.4 °C 29.99in /  1015.5hPa Calm     73% 0.00in /  0mm
21:03 74.0 °F /  23.3 °C 64.8 °F /  18.2 °C 29.99in /  1015.5hPa Calm     73% 0.00in /  0mm
21:08 73.9 °F /  23.3 °C 65.1 °F /  18.4 °C 29.99in /  1015.5hPa SSE 2.0mph /  3.2km/h 4.0mph /  6.4km/h 74% 0.00in /  0mm
21:14 74.1 °F /  23.4 °C 65.3 °F /  18.5 °C 29.99in /  1015.5hPa SSE 2.0mph /  3.2km/h 2.0mph /  3.2km/h 74% 0.00in /  0mm
21:19 74.0 °F /  23.3 °C 64.8 °F /  18.2 °C 29.99in /  1015.5hPa South 2.0mph /  3.2km/h 3.0mph /  4.8km/h 73% 0.00in /  0mm
21:24 74.1 °F /  23.4 °C 64.9 °F /  18.3 °C 29.99in /  1015.5hPa SSE 2.0mph /  3.2km/h 3.0mph /  4.8km/h 73% 0.00in /  0mm
21:29 74.0 °F /  23.3 °C 64.8 °F /  18.2 °C 29.99in /  1015.5hPa SSW 1.0mph /  1.6km/h 3.0mph /  4.8km/h 73% 0.00in /  0mm
21:34 74.0 °F /  23.3 °C 64.8 °F /  18.2 °C 29.99in /  1015.5hPa SSE 3.0mph /  4.8km/h 3.0mph /  4.8km/h 73% 0.00in /  0mm
21:39 73.9 °F /  23.3 °C 64.7 °F /  18.2 °C 30.00in /  1015.8hPa SSE 2.0mph /  3.2km/h 3.0mph /  4.8km/h 73% 0.00in /  0mm
21:44 73.6 °F /  23.1 °C 64.8 °F /  18.2 °C 30.00in /  1015.8hPa SE 2.0mph /  3.2km/h 3.0mph /  4.8km/h 74% 0.00in /  0mm
21:49 73.1 °F /  22.8 °C 64.7 °F /  18.2 °C 30.00in /  1015.8hPa SSE 2.0mph /  3.2km/h 2.0mph /  3.2km/h 75% 0.00in /  0mm
21:54 72.7 °F /  22.6 °C 64.3 °F /  17.9 °C 30.00in /  1015.8hPa SSE 1.0mph /  1.6km/h 3.0mph /  4.8km/h 75% 0.00in /  0mm
21:59 72.7 °F /  22.6 °C 64.7 °F /  18.2 °C 30.00in /  1015.8hPa SSW 4.0mph /  6.4km/h 4.0mph /  6.4km/h 76% 0.00in /  0mm
22:04 72.9 °F /  22.7 °C 64.5 °F /  18.1 °C 30.00in /  1015.8hPa South 2.0mph /  3.2km/h 3.0mph /  4.8km/h 75% 0.00in /  0mm
22:09 72.7 °F /  22.6 °C 64.3 °F /  17.9 °C 30.00in /  1015.8hPa SSE 3.0mph /  4.8km/h 4.0mph /  6.4km/h 75% 0.00in /  0mm
22:14 72.2 °F /  22.3 °C 64.2 °F /  17.9 °C 30.00in /  1015.8hPa SSE 3.0mph /  4.8km/h 4.0mph /  6.4km/h 76% 0.00in /  0mm
22:19 71.9 °F /  22.2 °C 64.3 °F /  17.9 °C 30.00in /  1015.8hPa SE 4.0mph /  6.4km/h 4.0mph /  6.4km/h 77% 0.00in /  0mm
22:24 71.8 °F /  22.1 °C 64.2 °F /  17.9 °C 30.00in /  1015.8hPa SSE 5.0mph /  8km/h 5.0mph /  8km/h 77% 0.00in /  0mm
22:29 71.7 °F /  22.1 °C 64.1 °F /  17.8 °C 30.00in /  1015.8hPa SSE 4.0mph /  6.4km/h 5.0mph /  8km/h 77% 0.00in /  0mm
22:34 71.6 °F /  22 °C 64.4 °F /  18 °C 30.00in /  1015.8hPa SSE 5.0mph /  8km/h 5.0mph /  8km/h 78% 0.00in /  0mm
22:39 71.8 °F /  22.1 °C 64.2 °F /  17.9 °C 30.00in /  1015.8hPa SSE 5.0mph /  8km/h 6.0mph /  9.7km/h 77% 0.00in /  0mm
22:45 71.9 °F /  22.2 °C 64.3 °F /  17.9 °C 30.00in /  1015.8hPa SE 4.0mph /  6.4km/h 6.0mph /  9.7km/h 77% 0.00in /  0mm
22:50 71.9 °F /  22.2 °C 64.3 °F /  17.9 °C 30.00in /  1015.8hPa SSE 7.0mph /  11.3km/h 7.0mph /  11.3km/h 77% 0.00in /  0mm
22:55 71.8 °F /  22.1 °C 64.2 °F /  17.9 °C 30.00in /  1015.8hPa SSE 5.0mph /  8km/h 6.0mph /  9.7km/h 77% 0.00in /  0mm
23:00 71.6 °F /  22 °C 64.0 °F /  17.8 °C 30.00in /  1015.8hPa SE 4.0mph /  6.4km/h 6.0mph /  9.7km/h 77% 0.00in /  0mm
23:05 71.5 °F /  21.9 °C 64.3 °F /  17.9 °C 30.00in /  1015.8hPa SSE 5.0mph /  8km/h 6.0mph /  9.7km/h 78% 0.00in /  0mm
23:10 71.4 °F /  21.9 °C 64.2 °F /  17.9 °C 30.00in /  1015.8hPa SSE 2.0mph /  3.2km/h 4.0mph /  6.4km/h 78% 0.00in /  0mm
23:15 71.2 °F /  21.8 °C 64.0 °F /  17.8 °C 30.00in /  1015.8hPa SSE 3.0mph /  4.8km/h 3.0mph /  4.8km/h 78% 0.00in /  0mm
23:20 71.1 °F /  21.7 °C 63.9 °F /  17.7 °C 30.00in /  1015.8hPa SE 4.0mph /  6.4km/h 4.0mph /  6.4km/h 78% 0.00in /  0mm
23:25 71.0 °F /  21.7 °C 64.2 °F /  17.9 °C 30.00in /  1015.8hPa SSE 3.0mph /  4.8km/h 4.0mph /  6.4km/h 79% 0.00in /  0mm
23:30 71.0 °F /  21.7 °C 63.8 °F /  17.7 °C 30.00in /  1015.8hPa SE 1.0mph /  1.6km/h 3.0mph /  4.8km/h 78% 0.00in /  0mm
23:35 71.1 °F /  21.7 °C 63.9 °F /  17.7 °C 30.00in /  1015.8hPa SSW 1.0mph /  1.6km/h 3.0mph /  4.8km/h 78% 0.00in /  0mm
23:40 71.0 °F /  21.7 °C 63.8 °F /  17.7 °C 29.99in /  1015.5hPa SSE 1.0mph /  1.6km/h 2.0mph /  3.2km/h 78% 0.00in /  0mm
23:45 70.9 °F /  21.6 °C 63.7 °F /  17.6 °C 29.99in /  1015.5hPa Calm   1.0mph /  1.6km/h 78% 0.00in /  0mm
23:50 70.8 °F /  21.6 °C 63.6 °F /  17.6 °C 29.99in /  1015.5hPa Calm   1.0mph /  1.6km/h 78% 0.00in /  0mm
23:55 70.7 °F /  21.5 °C 63.5 °F /  17.5 °C 29.99in /  1015.5hPa SE 1.0mph /  1.6km/h 1.0mph /  1.6km/h 78% 0.00in /  0mm
Compliments of Weather Underground